createdAt,value
2023-02-28T00:00:28.404Z,7.32
2023-02-28T00:02:54.926Z,5.18
2023-02-28T00:05:24.050Z,3.78
2023-02-28T00:07:50.731Z,4.47
2023-02-28T00:10:24.760Z,5.72
2023-02-28T00:12:54.910Z,4.07
2023-02-28T00:15:22.473Z,4.20
2023-02-28T00:17:49.143Z,5.22
2023-02-28T00:20:16.870Z,4.80
2023-02-28T00:22:45.245Z,4.97
2023-02-28T00:25:12.636Z,4.85
2023-02-28T00:27:40.354Z,4.78
2023-02-28T00:30:07.458Z,4.82
2023-02-28T00:32:35.473Z,7.03
2023-02-28T00:35:02.415Z,4.53
2023-02-28T00:37:28.822Z,5.90
2023-02-28T00:39:56.846Z,4.70
2023-02-28T00:42:24.638Z,4.97
2023-02-28T00:44:51.261Z,5.15
2023-02-28T00:47:17.607Z,5.68
2023-02-28T00:49:44.291Z,6.53
2023-02-28T00:52:11.755Z,6.32
2023-02-28T00:54:38.075Z,6.75
2023-02-28T00:57:05.388Z,6.07
2023-02-28T00:59:32.399Z,6.78
2023-02-28T01:01:59.340Z,6.53
2023-02-28T01:04:26.209Z,7.30
2023-02-28T01:06:52.961Z,5.82
2023-02-28T01:09:19.632Z,7.35
2023-02-28T01:11:46.503Z,10.45
2023-02-28T01:14:14.623Z,8.10
2023-02-28T01:16:42.753Z,7.25
2023-02-28T01:19:10.537Z,7.53
2023-02-28T01:21:39.068Z,7.03
2023-02-28T01:24:06.680Z,6.47
2023-02-28T01:26:33.177Z,7.43
2023-02-28T01:28:59.597Z,8.38
2023-02-28T01:31:26.478Z,7.70
2023-02-28T01:33:53.143Z,6.53
2023-02-28T01:36:20.647Z,6.28
2023-02-28T01:38:47.604Z,8.52
2023-02-28T01:41:19.164Z,7.80
2023-02-28T01:43:45.690Z,7.25
2023-02-28T01:46:12.824Z,6.85
2023-02-28T01:48:41.758Z,6.40
2023-02-28T01:51:13.584Z,7.22
2023-02-28T01:53:42.673Z,6.97
2023-02-28T01:56:11.303Z,5.80
2023-02-28T01:58:38.069Z,6.22
2023-02-28T02:01:05.381Z,6.00
2023-02-28T02:03:33.688Z,7.28
2023-02-28T02:06:01.685Z,6.38
2023-02-28T02:08:30.618Z,7.75
2023-02-28T02:11:00.527Z,6.00
2023-02-28T02:13:47.220Z,7.75
2023-02-28T02:16:24.066Z,7.72
2023-02-28T02:18:51.761Z,6.15
2023-02-28T02:21:37.009Z,5.65
2023-02-28T02:24:12.665Z,5.40
2023-02-28T02:26:49.147Z,4.97
2023-02-28T02:29:23.109Z,4.32
2023-02-28T02:32:04.061Z,5.57
2023-02-28T02:34:49.589Z,5.40
2023-02-28T02:37:25.206Z,4.85
2023-02-28T02:39:54.998Z,5.72
2023-02-28T02:42:28.740Z,4.40
2023-02-28T02:45:16.492Z,4.65
2023-02-28T02:47:44.928Z,11.02
2023-02-28T02:50:14.946Z,5.05
2023-02-28T02:52:46.967Z,5.22
2023-02-28T02:55:15.866Z,5.22
2023-02-28T02:57:48.123Z,7.97
2023-02-28T03:00:16.866Z,4.63
2023-02-28T03:02:43.729Z,5.00
2023-02-28T03:05:22.789Z,3.75
2023-02-28T03:07:50.276Z,5.38
2023-02-28T03:10:29.329Z,5.43
2023-02-28T03:13:02.248Z,5.47
2023-02-28T03:15:33.255Z,3.72
2023-02-28T03:18:03.354Z,4.47
2023-02-28T03:20:31.514Z,5.05
2023-02-28T03:23:02.403Z,4.45
2023-02-28T03:25:34.933Z,7.32
2023-02-28T03:28:02.788Z,4.10
2023-02-28T03:30:48.058Z,4.07
2023-02-28T03:33:37.701Z,4.43
2023-02-28T03:36:05.770Z,5.18
2023-02-28T03:38:48.616Z,6.13
2023-02-28T03:41:27.081Z,4.45
2023-02-28T03:44:00.612Z,6.25
2023-02-28T03:46:29.335Z,5.95
2023-02-28T03:48:58.284Z,6.47
2023-02-28T03:51:25.344Z,6.18
2023-02-28T03:53:54.429Z,5.05
2023-02-28T03:56:27.595Z,5.70
2023-02-28T03:59:13.329Z,5.22
2023-02-28T04:01:42.351Z,5.28
2023-02-28T04:04:10.029Z,5.07
2023-02-28T04:06:36.476Z,5.30
2023-02-28T04:09:04.888Z,5.25
2023-02-28T04:11:36.520Z,4.25
2023-02-28T04:14:04.504Z,4.38
2023-02-28T04:16:35.329Z,5.30
2023-02-28T04:19:03.222Z,4.22
2023-02-28T04:21:33.874Z,4.97
2023-02-28T04:24:01.771Z,3.90
2023-02-28T04:26:32.188Z,4.55
2023-02-28T04:28:59.202Z,4.15
2023-02-28T04:31:25.840Z,5.50
2023-02-28T04:33:52.827Z,4.10
2023-02-28T04:36:19.484Z,3.60
2023-02-28T04:38:46.369Z,3.65
2023-02-28T04:41:13.317Z,5.57
2023-02-28T04:43:41.169Z,4.63
2023-02-28T04:46:08.139Z,5.80
2023-02-28T04:48:39.628Z,4.07
2023-02-28T04:51:10.460Z,3.85
2023-02-28T04:53:37.795Z,5.18
2023-02-28T04:56:05.029Z,5.18
2023-02-28T04:58:31.738Z,3.42
2023-02-28T05:01:16.452Z,4.30
2023-02-28T05:03:43.689Z,4.20
2023-02-28T05:06:11.251Z,4.00
2023-02-28T05:08:38.047Z,3.50
2023-02-28T05:11:05.151Z,3.40
2023-02-28T05:13:31.783Z,3.45
2023-02-28T05:15:58.500Z,5.05
2023-02-28T05:18:24.913Z,3.67
2023-02-28T05:20:51.443Z,4.85
2023-02-28T05:23:18.597Z,3.22
2023-02-28T05:25:45.220Z,3.97
2023-02-28T05:28:11.804Z,2.95
2023-02-28T05:30:38.515Z,8.70
2023-02-28T05:33:04.872Z,2.88
2023-02-28T05:35:31.344Z,8.88
2023-02-28T05:37:57.912Z,5.32
2023-02-28T05:40:24.259Z,3.95
2023-02-28T05:42:55.580Z,3.60
2023-02-28T05:45:22.648Z,4.15
2023-02-28T05:47:49.062Z,4.30
2023-02-28T05:50:15.947Z,3.90
2023-02-28T05:52:42.479Z,3.92
2023-02-28T05:55:09.250Z,3.50
2023-02-28T05:57:35.643Z,6.28
2023-02-28T06:00:02.850Z,2.88
2023-02-28T06:02:39.783Z,3.10
2023-02-28T06:05:06.691Z,4.80
2023-02-28T06:07:33.452Z,4.53
2023-02-28T06:10:00.114Z,4.13
2023-02-28T06:12:26.489Z,4.35
2023-02-28T06:14:53.471Z,4.90
2023-02-28T06:17:19.826Z,4.18
2023-02-28T06:19:46.297Z,5.30
2023-02-28T06:22:12.854Z,3.33
2023-02-28T06:24:39.352Z,3.88
2023-02-28T06:27:06.662Z,4.97
2023-02-28T06:29:34.126Z,4.50
2023-02-28T06:32:00.907Z,5.03
2023-02-28T06:34:27.589Z,3.60
2023-02-28T06:36:54.374Z,5.35
2023-02-28T06:39:21.246Z,4.88
2023-02-28T06:41:55.286Z,4.20
2023-02-28T06:44:22.823Z,4.53
2023-02-28T06:46:50.980Z,5.15
2023-02-28T06:49:17.753Z,4.15
2023-02-28T06:51:46.068Z,6.63
2023-02-28T06:54:13.278Z,4.20
2023-02-28T06:56:39.900Z,4.00
2023-02-28T06:59:06.595Z,4.45
2023-02-28T07:01:34.022Z,5.28
2023-02-28T07:04:01.262Z,4.57
2023-02-28T07:06:27.770Z,3.03
2023-02-28T07:08:54.932Z,4.90
2023-02-28T07:11:23.741Z,5.28
2023-02-28T07:13:52.097Z,4.03
2023-02-28T07:16:18.776Z,5.70
2023-02-28T07:18:45.473Z,3.50
2023-02-28T07:21:12.261Z,4.07
2023-02-28T07:23:41.218Z,3.33
2023-02-28T07:26:08.455Z,4.03
2023-02-28T07:28:35.128Z,5.10
2023-02-28T07:31:08.540Z,4.28
2023-02-28T07:33:35.146Z,3.85
2023-02-28T07:36:09.389Z,4.03
2023-02-28T07:38:36.566Z,3.58
2023-02-28T07:41:06.919Z,4.88
2023-02-28T07:43:33.964Z,4.55
2023-02-28T07:46:08.476Z,5.88
2023-02-28T07:48:35.184Z,4.80
2023-02-28T07:51:02.292Z,5.35
2023-02-28T07:53:29.255Z,5.10
2023-02-28T07:55:57.630Z,5.13
2023-02-28T07:58:25.050Z,4.72
2023-02-28T08:00:53.281Z,4.13
2023-02-28T08:03:21.228Z,5.47
2023-02-28T08:05:49.671Z,6.53
2023-02-28T08:08:19.496Z,3.45
2023-02-28T08:10:47.713Z,4.47
2023-02-28T08:13:15.330Z,4.03
2023-02-28T08:15:44.053Z,4.13
2023-02-28T08:18:12.603Z,3.85
2023-02-28T08:20:40.018Z,3.90
2023-02-28T08:23:07.010Z,4.03
2023-02-28T08:25:34.175Z,3.67
2023-02-28T08:28:01.566Z,4.10
2023-02-28T08:30:29.544Z,3.33
2023-02-28T08:32:57.181Z,3.90
2023-02-28T08:35:25.203Z,4.63
2023-02-28T08:37:52.980Z,4.45
2023-02-28T08:40:20.465Z,4.72
2023-02-28T08:42:49.668Z,5.53
2023-02-28T08:45:17.173Z,4.72
2023-02-28T08:47:44.911Z,4.22
2023-02-28T08:50:13.263Z,4.75
2023-02-28T08:52:40.570Z,4.93
2023-02-28T08:55:08.173Z,4.78
2023-02-28T08:57:35.603Z,4.93
2023-02-28T09:00:05.963Z,4.75
2023-02-28T09:02:33.904Z,5.47
2023-02-28T09:05:00.779Z,4.53
2023-02-28T09:07:30.483Z,5.93
2023-02-28T09:09:59.911Z,4.32
2023-02-28T09:12:28.404Z,4.90
2023-02-28T09:14:56.593Z,4.72
2023-02-28T09:17:23.937Z,4.88
2023-02-28T09:19:52.883Z,4.82
2023-02-28T09:22:20.681Z,5.15
2023-02-28T09:24:47.844Z,4.53
2023-02-28T09:27:15.916Z,5.03
2023-02-28T09:29:43.385Z,4.88
2023-02-28T09:32:11.565Z,6.00
2023-02-28T09:34:39.959Z,5.20
2023-02-28T09:37:06.807Z,4.82
2023-02-28T09:39:34.602Z,4.78
2023-02-28T09:42:03.824Z,6.85
2023-02-28T09:44:39.776Z,5.22
2023-02-28T09:47:27.040Z,5.35
2023-02-28T09:49:55.112Z,6.93
2023-02-28T09:52:25.545Z,4.88
2023-02-28T09:54:52.947Z,5.53
2023-02-28T09:57:20.846Z,4.80
2023-02-28T10:00:00.724Z,5.60
2023-02-28T10:02:41.764Z,6.03
2023-02-28T10:05:14.520Z,5.78
2023-02-28T10:07:42.585Z,5.30
2023-02-28T10:10:25.401Z,5.15
2023-02-28T10:12:55.913Z,6.40
2023-02-28T10:15:25.245Z,6.72
2023-02-28T10:20:32.809Z,5.90
2023-02-28T10:23:09.303Z,6.68
2023-02-28T10:25:38.991Z,8.07
2023-02-28T10:28:11.647Z,5.68
2023-02-28T10:30:40.715Z,7.78
2023-02-28T10:33:10.921Z,5.63
2023-02-28T10:35:38.272Z,5.60
2023-02-28T10:38:13.845Z,5.00
2023-02-28T10:40:40.613Z,5.43
2023-02-28T10:43:20.431Z,6.38
2023-02-28T10:46:03.624Z,6.20
2023-02-28T10:48:33.758Z,6.10
2023-02-28T10:51:01.168Z,6.45
2023-02-28T10:53:48.413Z,6.88
2023-02-28T10:56:24.318Z,6.28
2023-02-28T10:59:05.418Z,7.25
2023-02-28T11:01:38.150Z,7.43
2023-02-28T11:04:06.192Z,6.53
2023-02-28T11:06:35.360Z,7.82
2023-02-28T11:09:04.760Z,6.43
2023-02-28T11:11:42.546Z,6.15
2023-02-28T11:14:19.660Z,5.47
2023-02-28T11:16:47.606Z,5.32
2023-02-28T11:19:41.796Z,7.07
2023-02-28T11:22:09.767Z,6.85
2023-02-28T11:24:38.927Z,7.30
2023-02-28T11:27:07.598Z,6.63
2023-02-28T11:29:36.479Z,5.60
2023-02-28T11:32:05.174Z,6.00
2023-02-28T11:34:34.705Z,7.32
2023-02-28T11:37:04.901Z,5.70
2023-02-28T11:39:33.728Z,5.53
2023-02-28T11:42:03.981Z,4.82
2023-02-28T11:44:58.612Z,5.47
2023-02-28T11:49:53.883Z,7.35
2023-02-28T11:52:45.247Z,9.70
2023-02-28T11:55:31.082Z,6.30
2023-02-28T11:58:01.239Z,6.00
2023-02-28T12:00:47.454Z,5.68
2023-02-28T12:03:30.613Z,5.88
2023-02-28T12:06:12.005Z,7.15
2023-02-28T12:09:04.038Z,5.38
2023-02-28T12:11:41.001Z,7.00
2023-02-28T12:14:14.903Z,7.38
2023-02-28T12:16:47.220Z,7.15
2023-02-28T12:19:20.992Z,9.35
2023-02-28T12:22:07.105Z,6.18
2023-02-28T12:24:42.635Z,6.82
2023-02-28T12:27:13.819Z,6.82
2023-02-28T12:29:52.382Z,6.63
2023-02-28T12:32:23.039Z,6.10
2023-02-28T12:35:03.969Z,7.47
2023-02-28T12:37:44.763Z,6.75
2023-02-28T12:40:17.624Z,6.30
2023-02-28T12:42:48.463Z,6.43
2023-02-28T12:45:20.262Z,7.78
2023-02-28T12:47:50.593Z,9.25
2023-02-28T12:50:18.310Z,7.18
2023-02-28T12:52:59.629Z,6.82
2023-02-28T12:55:27.613Z,9.18
2023-02-28T12:58:16.519Z,7.78
2023-02-28T13:00:55.581Z,7.43
2023-02-28T13:03:27.402Z,6.88
2023-02-28T13:06:04.301Z,8.73
2023-02-28T13:08:43.481Z,8.27
2023-02-28T13:11:24.540Z,8.43
2023-02-28T13:13:59.161Z,7.95
2023-02-28T13:16:26.386Z,11.15
2023-02-28T13:18:54.819Z,7.15
2023-02-28T13:21:29.808Z,8.40
2023-02-28T13:24:00.501Z,6.80
2023-02-28T13:26:39.926Z,9.02
2023-02-28T13:29:17.422Z,8.57
2023-02-28T13:32:04.055Z,7.75
2023-02-28T13:34:31.549Z,7.05
2023-02-28T13:37:17.615Z,9.95
2023-02-28T13:39:45.102Z,7.28
2023-02-28T13:42:32.968Z,10.27
2023-02-28T13:45:03.327Z,9.68
2023-02-28T13:47:38.321Z,7.72
2023-02-28T13:50:25.025Z,9.70
2023-02-28T13:53:02.519Z,7.97
2023-02-28T13:55:35.818Z,7.68
2023-02-28T13:58:06.427Z,9.63
2023-02-28T14:00:48.691Z,10.23
2023-02-28T14:03:22.362Z,8.50
2023-02-28T14:06:09.732Z,6.65
2023-02-28T14:08:37.887Z,8.00
2023-02-28T14:11:07.977Z,7.85
2023-02-28T14:13:49.741Z,7.00
2023-02-28T14:16:25.735Z,7.25
2023-02-28T14:19:13.027Z,9.10
2023-02-28T14:21:47.759Z,7.22
2023-02-28T14:24:19.464Z,8.27
2023-02-28T14:27:03.346Z,8.10
2023-02-28T14:29:49.807Z,8.05
2023-02-28T14:32:23.951Z,8.48
2023-02-28T14:35:06.744Z,7.43
2023-02-28T14:37:37.514Z,10.65
2023-02-28T14:40:05.606Z,7.38
2023-02-28T14:42:34.316Z,9.23
2023-02-28T14:45:02.367Z,7.65
2023-02-28T14:47:32.685Z,9.15
2023-02-28T14:50:01.061Z,8.40
2023-02-28T14:52:33.420Z,8.20
2023-02-28T14:55:02.599Z,9.30
2023-02-28T14:57:35.179Z,8.20
2023-02-28T15:00:15.833Z,8.30
2023-02-28T15:02:50.618Z,10.50
2023-02-28T15:05:22.292Z,8.13
2023-02-28T15:07:51.155Z,8.98
2023-02-28T15:10:19.229Z,9.63
2023-02-28T15:12:53.327Z,8.68
2023-02-28T15:15:31.752Z,9.38
2023-02-28T15:18:09.176Z,8.73
2023-02-28T15:20:37.532Z,8.63
2023-02-28T15:23:04.897Z,13.18
2023-02-28T15:25:32.962Z,8.85
2023-02-28T15:28:01.481Z,8.45
2023-02-28T15:30:32.522Z,7.85
2023-02-28T15:33:03.961Z,6.55
2023-02-28T15:35:33.343Z,9.23
2023-02-28T15:38:14.468Z,9.40
2023-02-28T15:40:46.645Z,10.00
2023-02-28T15:43:18.623Z,7.90
2023-02-28T15:45:47.874Z,8.95
2023-02-28T15:48:36.549Z,8.48
2023-02-28T15:51:08.684Z,10.43
2023-02-28T15:53:39.677Z,8.70
2023-02-28T15:56:19.294Z,8.65
2023-02-28T15:58:47.937Z,6.90
2023-02-28T16:01:21.772Z,8.02
2023-02-28T16:03:52.406Z,9.13
2023-02-28T16:06:26.010Z,11.27
2023-02-28T16:08:55.122Z,8.75
2023-02-28T16:11:24.162Z,10.07
2023-02-28T16:13:52.709Z,8.73
2023-02-28T16:16:22.822Z,9.13
2023-02-28T16:18:50.449Z,9.52
2023-02-28T16:21:18.824Z,9.05
2023-02-28T16:23:47.663Z,9.88
2023-02-28T16:26:24.346Z,11.75
2023-02-28T16:28:52.705Z,10.20
2023-02-28T16:31:21.408Z,9.13
2023-02-28T16:33:49.460Z,9.18
2023-02-28T16:36:21.503Z,10.60
2023-02-28T16:38:49.210Z,9.10
2023-02-28T16:41:20.213Z,9.63
2023-02-28T16:43:48.946Z,9.75
2023-02-28T16:46:17.855Z,9.95
2023-02-28T16:48:46.325Z,9.02
2023-02-28T16:51:15.418Z,8.85
2023-02-28T16:53:44.138Z,8.73
2023-02-28T16:56:30.000Z,10.45
2023-02-28T16:59:00.416Z,11.80
2023-02-28T17:01:29.694Z,9.80
2023-02-28T17:03:57.650Z,8.30
2023-02-28T17:06:28.229Z,10.00
2023-02-28T17:08:57.151Z,9.88
2023-02-28T17:11:26.214Z,9.25
2023-02-28T17:13:56.241Z,9.55
2023-02-28T17:16:29.879Z,9.85
2023-02-28T17:19:00.297Z,8.75
2023-02-28T17:21:28.270Z,9.82
2023-02-28T17:23:55.732Z,7.80
2023-02-28T17:26:27.352Z,9.77
2023-02-28T17:28:57.497Z,8.98
2023-02-28T17:31:26.107Z,10.95
2023-02-28T17:33:54.396Z,9.32
2023-02-28T17:36:31.439Z,8.63
2023-02-28T17:38:59.489Z,8.57
2023-02-28T17:41:27.510Z,8.75
2023-02-28T17:43:54.057Z,10.52
2023-02-28T17:46:22.140Z,9.93
2023-02-28T17:48:49.672Z,10.85
2023-02-28T17:51:16.669Z,8.88
2023-02-28T17:53:43.120Z,8.77
2023-02-28T17:56:20.949Z,10.18
2023-02-28T17:58:47.655Z,8.45
2023-02-28T18:01:14.814Z,8.57
2023-02-28T18:03:41.211Z,8.93
2023-02-28T18:06:08.170Z,9.50
2023-02-28T18:08:36.446Z,10.15
2023-02-28T18:11:03.022Z,8.55
2023-02-28T18:13:29.544Z,12.82
2023-02-28T18:15:56.120Z,10.75
2023-02-28T18:18:22.691Z,10.25
2023-02-28T18:20:50.750Z,10.70
2023-02-28T18:23:18.345Z,11.38
2023-02-28T18:25:45.324Z,10.27
2023-02-28T18:28:11.710Z,10.98
2023-02-28T18:30:38.284Z,9.63
2023-02-28T18:33:04.672Z,8.73
2023-02-28T18:35:37.442Z,9.13
2023-02-28T18:38:09.210Z,10.23
2023-02-28T18:40:36.083Z,8.95
2023-02-28T18:43:03.112Z,8.68
2023-02-28T18:45:29.805Z,10.73
2023-02-28T18:47:56.188Z,12.90
2023-02-28T18:50:22.891Z,10.75
2023-02-28T18:52:49.446Z,11.20
2023-02-28T18:55:18.847Z,8.85
2023-02-28T18:57:46.029Z,9.13
2023-02-28T19:00:13.193Z,8.02
2023-02-28T19:02:40.214Z,11.68
2023-02-28T19:05:06.917Z,11.27
2023-02-28T19:07:34.601Z,11.43
2023-02-28T19:10:01.324Z,15.38
2023-02-28T19:12:27.718Z,10.13
2023-02-28T19:14:54.389Z,8.10
2023-02-28T19:17:21.091Z,9.60
2023-02-28T19:19:47.438Z,8.27
2023-02-28T19:22:13.826Z,9.13
2023-02-28T19:24:40.454Z,8.55
2023-02-28T19:27:06.993Z,9.60
2023-02-28T19:29:33.696Z,10.02
2023-02-28T19:32:00.634Z,9.93
2023-02-28T19:34:27.247Z,14.20
2023-02-28T19:36:53.602Z,9.82
2023-02-28T19:39:20.148Z,13.57
2023-02-28T19:41:46.525Z,10.65
2023-02-28T19:44:13.417Z,10.65
2023-02-28T19:46:39.991Z,10.57
2023-02-28T19:49:06.903Z,9.32
2023-02-28T19:51:34.750Z,11.57
2023-02-28T19:54:01.449Z,11.15
2023-02-28T19:56:28.542Z,11.18
2023-02-28T19:58:57.203Z,10.98
2023-02-28T20:01:23.995Z,13.23
2023-02-28T20:03:50.841Z,11.35
2023-02-28T20:06:17.881Z,10.75
2023-02-28T20:08:44.665Z,11.85
2023-02-28T20:11:12.718Z,10.65
2023-02-28T20:13:39.467Z,11.73
2023-02-28T20:16:07.061Z,11.93
2023-02-28T20:18:34.201Z,10.98
2023-02-28T20:21:02.151Z,12.15
2023-02-28T20:23:28.714Z,11.75
2023-02-28T20:25:58.537Z,14.85
2023-02-28T20:28:25.017Z,11.25
2023-02-28T20:30:51.542Z,11.38
2023-02-28T20:33:18.914Z,10.20
2023-02-28T20:35:45.801Z,13.25
2023-02-28T20:38:12.770Z,13.43
2023-02-28T20:40:39.321Z,12.02
2023-02-28T20:43:05.972Z,11.70
2023-02-28T20:45:32.494Z,15.70
2023-02-28T20:47:58.884Z,12.18
2023-02-28T20:50:25.617Z,16.95
2023-02-28T20:52:52.033Z,12.85
2023-02-28T20:55:18.655Z,12.88
2023-02-28T20:57:45.760Z,14.70
2023-02-28T21:00:16.250Z,14.35
2023-02-28T21:02:42.704Z,16.05
2023-02-28T21:05:09.548Z,14.07
2023-02-28T21:07:36.112Z,16.63
2023-02-28T21:10:02.859Z,15.95
2023-02-28T21:12:29.502Z,16.38
2023-02-28T21:14:56.287Z,14.55
2023-02-28T21:17:22.744Z,13.40
2023-02-28T21:19:49.295Z,13.73
2023-02-28T21:22:16.100Z,15.38
2023-02-28T21:24:42.614Z,13.70
2023-02-28T21:27:09.179Z,15.43
2023-02-28T21:29:35.509Z,16.10
2023-02-28T21:32:02.455Z,15.98
2023-02-28T21:34:29.070Z,15.60
2023-02-28T21:36:55.429Z,14.77
2023-02-28T21:39:25.420Z,17.92
2023-02-28T21:41:52.298Z,15.00
2023-02-28T21:44:19.218Z,16.90
2023-02-28T21:46:46.804Z,15.30
2023-02-28T21:49:14.064Z,19.30
2023-02-28T21:51:42.674Z,14.50
2023-02-28T21:54:09.943Z,15.02
2023-02-28T21:56:36.756Z,14.70
2023-02-28T21:59:03.732Z,12.55
2023-02-28T22:01:32.176Z,15.50
2023-02-28T22:03:59.296Z,13.07
2023-02-28T22:06:28.391Z,18.50
2023-02-28T22:08:57.333Z,14.75
2023-02-28T22:11:25.925Z,14.23
2023-02-28T22:14:00.717Z,13.18
2023-02-28T22:16:31.197Z,18.05
2023-02-28T22:18:59.960Z,13.77
2023-02-28T22:21:26.446Z,13.10
2023-02-28T22:23:53.251Z,15.10
2023-02-28T22:26:20.737Z,17.35
2023-02-28T22:28:47.565Z,16.80
2023-02-28T22:31:20.216Z,16.30
2023-02-28T22:33:47.502Z,17.02
2023-02-28T22:36:15.299Z,14.32
2023-02-28T22:38:43.234Z,15.30
2023-02-28T22:41:09.894Z,15.60
2023-02-28T22:43:36.222Z,14.70
2023-02-28T22:46:03.965Z,17.20
2023-02-28T22:48:31.230Z,14.70
2023-02-28T22:51:08.699Z,15.40
2023-02-28T22:53:35.734Z,14.95
2023-02-28T22:56:02.635Z,17.48
2023-02-28T22:58:29.811Z,14.25
2023-02-28T23:00:56.705Z,17.58
2023-02-28T23:03:26.870Z,16.15
2023-02-28T23:05:53.552Z,20.30
2023-02-28T23:08:23.399Z,14.30
2023-02-28T23:10:50.738Z,15.25
2023-02-28T23:13:18.501Z,18.10
2023-02-28T23:15:45.343Z,16.10
2023-02-28T23:18:13.233Z,17.15
2023-02-28T23:20:39.853Z,16.08
2023-02-28T23:23:06.485Z,14.23
2023-02-28T23:25:33.508Z,16.02
2023-02-28T23:28:00.181Z,16.50
2023-02-28T23:30:26.724Z,16.27
2023-02-28T23:32:53.132Z,21.73
2023-02-28T23:35:19.530Z,18.23
2023-02-28T23:37:45.994Z,13.57
2023-02-28T23:40:13.241Z,19.00
2023-02-28T23:42:39.945Z,18.50
2023-02-28T23:45:07.009Z,19.58
2023-02-28T23:47:33.522Z,15.32
2023-02-28T23:49:59.882Z,18.23
2023-02-28T23:52:26.989Z,18.70
2023-02-28T23:54:53.530Z,18.38
2023-02-28T23:57:20.151Z,16.08
2023-02-28T23:59:46.647Z,15.85
